createdAt,value
2018-07-21T00:00:45.337Z,15.33
2018-07-21T00:01:45.318Z,15.5
2018-07-21T00:02:45.403Z,15.5
2018-07-21T00:03:45.345Z,15.45
2018-07-21T00:04:45.318Z,15.52
2018-07-21T00:05:45.352Z,15.58
2018-07-21T00:06:45.351Z,15.56
2018-07-21T00:07:45.323Z,15.53
2018-07-21T00:08:45.315Z,15.62
2018-07-21T00:09:45.314Z,15.49
2018-07-21T00:10:45.439Z,15.54
2018-07-21T00:11:45.372Z,15.63
2018-07-21T00:12:45.297Z,15.63
2018-07-21T00:13:45.297Z,15.65
2018-07-21T00:14:45.305Z,15.67
2018-07-21T00:15:45.349Z,15.61
2018-07-21T00:16:45.307Z,15.61
2018-07-21T00:17:45.309Z,15.71
2018-07-21T00:18:45.306Z,15.66
2018-07-21T00:19:45.282Z,15.55
2018-07-21T00:20:45.289Z,15.66
2018-07-21T00:21:45.307Z,15.66
2018-07-21T00:22:45.362Z,15.73
2018-07-21T00:23:45.365Z,15.72
2018-07-21T00:24:45.328Z,15.61
2018-07-21T00:25:45.338Z,15.62
2018-07-21T00:26:45.303Z,15.64
2018-07-21T00:27:45.367Z,15.61
2018-07-21T00:28:45.281Z,15.68
2018-07-21T00:29:45.281Z,15.62
2018-07-21T00:30:45.388Z,15.63
2018-07-21T00:31:45.328Z,15.68
2018-07-21T00:32:45.312Z,15.74
2018-07-21T00:33:45.315Z,15.69
2018-07-21T00:34:45.313Z,15.71
2018-07-21T00:35:45.283Z,15.68
2018-07-21T00:36:45.280Z,15.71
2018-07-21T00:37:45.303Z,15.69
2018-07-21T00:38:45.319Z,15.67
2018-07-21T00:39:45.303Z,15.75
2018-07-21T00:40:45.328Z,15.72
2018-07-21T00:41:45.341Z,15.71
2018-07-21T00:42:45.286Z,15.76
2018-07-21T00:43:45.285Z,15.69
2018-07-21T00:44:45.292Z,15.77
2018-07-21T00:45:45.316Z,15.74
2018-07-21T00:46:45.298Z,15.73
2018-07-21T00:47:45.284Z,15.7
2018-07-21T00:48:45.289Z,15.71
2018-07-21T00:49:45.274Z,15.82
2018-07-21T00:50:45.340Z,15.73
2018-07-21T00:51:45.364Z,15.73
2018-07-21T00:52:45.456Z,15.7
2018-07-21T00:53:45.296Z,15.82
2018-07-21T00:54:45.323Z,15.82
2018-07-21T00:55:45.343Z,15.71
2018-07-21T00:56:45.309Z,15.8
2018-07-21T00:57:45.349Z,15.86
2018-07-21T00:58:45.321Z,15.75
2018-07-21T00:59:45.310Z,15.71
2018-07-21T01:00:45.298Z,15.77
2018-07-21T01:01:45.333Z,15.85
2018-07-21T01:02:45.418Z,15.88
2018-07-21T01:03:45.304Z,15.83
2018-07-21T01:04:45.301Z,15.86
2018-07-21T01:05:45.314Z,15.83
2018-07-21T01:06:45.378Z,15.95
2018-07-21T01:07:45.332Z,15.96
2018-07-21T01:08:45.500Z,15.89
2018-07-21T01:09:45.371Z,15.98
2018-07-21T01:10:45.357Z,16.01
2018-07-21T01:11:45.391Z,15.97
2018-07-21T01:12:45.318Z,16.04
2018-07-21T01:13:45.320Z,16.06
2018-07-21T01:14:45.376Z,16.06
2018-07-21T01:15:45.413Z,16.09
2018-07-21T01:16:45.464Z,16.14
2018-07-21T01:17:45.361Z,16.05
2018-07-21T01:18:45.313Z,16.1
2018-07-21T01:19:45.410Z,16.14
2018-07-21T01:20:45.318Z,16.2
2018-07-21T01:21:45.329Z,16.21
2018-07-21T01:22:45.441Z,16.18
2018-07-21T01:23:45.374Z,16.25
2018-07-21T01:24:45.513Z,16.21
2018-07-21T01:25:45.418Z,16.24
2018-07-21T01:26:45.327Z,16.24
2018-07-21T01:27:45.326Z,16.26
2018-07-21T01:28:45.301Z,16.25
2018-07-21T01:29:45.341Z,16.37
2018-07-21T01:30:45.311Z,16.26
2018-07-21T01:31:45.461Z,16.37
2018-07-21T01:32:45.375Z,16.38
2018-07-21T01:33:45.342Z,16.35
2018-07-21T01:34:45.341Z,16.25
2018-07-21T01:35:45.351Z,16.43
2018-07-21T01:36:45.360Z,16.31
2018-07-21T01:37:45.365Z,16.14
2018-07-21T01:38:45.334Z,16.33
2018-07-21T01:39:45.401Z,16.38
2018-07-21T01:40:45.348Z,16.49
2018-07-21T01:41:45.370Z,16.38
2018-07-21T01:42:45.302Z,16.42
2018-07-21T01:43:45.378Z,16.39
2018-07-21T01:44:45.307Z,16.51
2018-07-21T01:45:45.342Z,16.49
2018-07-21T01:46:45.355Z,16.38
2018-07-21T01:47:45.326Z,16.48
2018-07-21T01:48:45.325Z,16.54
2018-07-21T01:49:45.325Z,16.52
2018-07-21T01:50:45.318Z,16.47
2018-07-21T01:51:45.374Z,16.41
2018-07-21T01:52:45.312Z,16.54
2018-07-21T01:53:45.314Z,16.53
2018-07-21T01:54:45.302Z,16.6
2018-07-21T01:55:45.283Z,16.61
2018-07-21T01:56:45.329Z,16.43
2018-07-21T01:57:45.313Z,16.5
2018-07-21T01:58:45.300Z,16.57
2018-07-21T01:59:45.251Z,16.51
2018-07-21T02:00:45.277Z,16.35
2018-07-21T02:01:45.338Z,16.5
2018-07-21T02:02:45.295Z,16.33
2018-07-21T02:03:45.278Z,16.45
2018-07-21T02:04:45.281Z,16.61
2018-07-21T02:05:45.277Z,16.67
2018-07-21T02:06:45.282Z,16.71
2018-07-21T02:07:45.262Z,16.63
2018-07-21T02:08:45.356Z,16.65
2018-07-21T02:09:45.265Z,16.63
2018-07-21T02:10:45.284Z,16.62
2018-07-21T02:11:45.296Z,16.7
2018-07-21T02:12:45.789Z,16.57
2018-07-21T02:13:45.263Z,16.52
2018-07-21T02:14:45.273Z,16.61
2018-07-21T02:15:45.348Z,16.64
2018-07-21T02:16:45.271Z,16.58
2018-07-21T02:17:45.357Z,16.65
2018-07-21T02:18:45.280Z,16.55
2018-07-21T02:19:45.475Z,16.56
2018-07-21T02:20:45.312Z,16.6
2018-07-21T02:21:45.331Z,16.53
2018-07-21T02:22:45.302Z,16.7
2018-07-21T02:23:45.662Z,16.51
2018-07-21T02:24:45.440Z,16.55
2018-07-21T02:25:45.305Z,16.67
2018-07-21T02:26:45.464Z,16.54
2018-07-21T02:27:45.262Z,16.57
2018-07-21T02:28:45.376Z,16.53
2018-07-21T02:29:45.286Z,16.63
2018-07-21T02:30:45.257Z,16.64
2018-07-21T02:31:45.400Z,16.58
2018-07-21T02:32:45.329Z,16.55
2018-07-21T02:33:45.293Z,16.67
2018-07-21T02:34:45.861Z,16.66
2018-07-21T02:35:45.391Z,16.53
2018-07-21T02:36:45.297Z,16.55
2018-07-21T02:37:45.272Z,16.73
2018-07-21T02:38:45.294Z,16.58
2018-07-21T02:39:45.454Z,16.67
2018-07-21T02:40:45.262Z,16.64
2018-07-21T02:41:45.284Z,16.75
2018-07-21T02:42:45.343Z,16.62
2018-07-21T02:43:45.355Z,16.55
2018-07-21T02:44:45.459Z,16.7
2018-07-21T02:45:45.761Z,16.52
2018-07-21T02:46:45.265Z,16.54
2018-07-21T02:47:45.329Z,16.54
2018-07-21T02:48:45.277Z,16.64
2018-07-21T02:49:45.564Z,16.56
2018-07-21T02:50:45.351Z,16.65
2018-07-21T02:51:45.302Z,16.54
2018-07-21T02:52:45.400Z,16.71
2018-07-21T02:53:45.321Z,16.71
2018-07-21T02:54:45.633Z,16.55
2018-07-21T02:55:45.367Z,16.48
2018-07-21T02:56:45.336Z,16.6
2018-07-21T02:57:45.327Z,16.51
2018-07-21T02:58:45.316Z,16.63
2018-07-21T02:59:45.282Z,16.61
2018-07-21T03:00:45.336Z,16.55
2018-07-21T03:01:45.851Z,16.54
2018-07-21T03:02:45.573Z,16.55
2018-07-21T03:03:45.288Z,16.39
2018-07-21T03:04:45.290Z,16.7
2018-07-21T03:05:45.442Z,16.6
2018-07-21T03:06:45.292Z,16.51
2018-07-21T03:07:45.275Z,16.71
2018-07-21T03:08:45.277Z,16.45
2018-07-21T03:09:45.262Z,16.38
2018-07-21T03:10:45.430Z,16.49
2018-07-21T03:11:45.283Z,16.63
2018-07-21T03:12:45.280Z,16.64
2018-07-21T03:13:45.323Z,16.71
2018-07-21T03:14:45.299Z,16.69
2018-07-21T03:15:45.271Z,16.59
2018-07-21T03:16:45.264Z,16.7
2018-07-21T03:17:45.266Z,16.34
2018-07-21T03:18:45.287Z,16.32
2018-07-21T03:19:45.270Z,16.66
2018-07-21T03:20:45.330Z,16.73
2018-07-21T03:21:45.324Z,16.56
2018-07-21T03:22:45.283Z,16.68
2018-07-21T03:23:45.277Z,16.58
2018-07-21T03:24:45.294Z,16.66
2018-07-21T03:25:45.300Z,16.63
2018-07-21T03:26:45.283Z,16.58
2018-07-21T03:27:45.287Z,16.53
2018-07-21T03:28:45.271Z,16.54
2018-07-21T03:29:45.269Z,16.58
2018-07-21T03:30:45.569Z,16.65
2018-07-21T03:31:45.367Z,16.55
2018-07-21T03:32:45.265Z,16.68
2018-07-21T03:33:45.276Z,16.67
2018-07-21T03:34:45.353Z,16.61
2018-07-21T03:35:45.269Z,16.56
2018-07-21T03:36:45.317Z,16.53
2018-07-21T03:37:46.679Z,16.47
2018-07-21T03:38:45.259Z,16.29
2018-07-21T03:39:45.256Z,16.47
2018-07-21T03:40:45.309Z,16.69
2018-07-21T03:41:45.342Z,16.66
2018-07-21T03:42:45.237Z,16.56
2018-07-21T03:43:45.415Z,16.65
2018-07-21T03:44:45.328Z,16.47
2018-07-21T03:45:45.245Z,16.38
2018-07-21T03:46:45.333Z,16.31
2018-07-21T03:47:45.452Z,16.34
2018-07-21T03:48:45.877Z,16.27
2018-07-21T03:49:45.270Z,16.42
2018-07-21T03:50:45.278Z,16.38
2018-07-21T03:51:45.301Z,16.4
2018-07-21T03:52:45.253Z,16.66
2018-07-21T03:53:45.262Z,16.44
2018-07-21T03:54:45.452Z,16.61
2018-07-21T03:55:45.309Z,16.67
2018-07-21T03:56:45.352Z,16.76
2018-07-21T03:57:45.366Z,16.53
2018-07-21T03:58:45.332Z,16.77
2018-07-21T03:59:45.266Z,16.5
2018-07-21T04:00:45.259Z,16.46
2018-07-21T04:01:45.274Z,16.3
2018-07-21T04:02:45.299Z,16.35
2018-07-21T04:03:45.250Z,16.45
2018-07-21T04:04:45.326Z,16.53
2018-07-21T04:05:45.476Z,16.61
2018-07-21T04:06:45.233Z,16.53
2018-07-21T04:07:45.305Z,16.59
2018-07-21T04:08:45.286Z,16.75
2018-07-21T04:09:45.338Z,16.65
2018-07-21T04:10:45.281Z,16.62
2018-07-21T04:11:45.427Z,16.66
2018-07-21T04:12:45.319Z,16.52
2018-07-21T04:13:45.300Z,16.71
2018-07-21T04:14:45.272Z,16.54
2018-07-21T04:15:45.459Z,16.6
2018-07-21T04:16:45.396Z,16.61
2018-07-21T04:17:45.361Z,16.46
2018-07-21T04:18:45.440Z,16.5
2018-07-21T04:19:45.347Z,16.58
2018-07-21T04:20:45.285Z,16.45
2018-07-21T04:21:45.320Z,16.44
2018-07-21T04:22:45.262Z,16.56
2018-07-21T04:23:45.244Z,16.52
2018-07-21T04:24:45.303Z,16.45
2018-07-21T04:25:45.528Z,16.42
2018-07-21T04:26:45.264Z,16.34
2018-07-21T04:27:45.251Z,16.54
2018-07-21T04:28:45.236Z,16.45
2018-07-21T04:29:45.265Z,16.37
2018-07-21T04:30:45.272Z,16.4
2018-07-21T04:31:45.271Z,16.48
2018-07-21T04:32:45.285Z,16.47
2018-07-21T04:33:45.246Z,16.65
2018-07-21T04:34:45.241Z,16.53
2018-07-21T04:35:45.226Z,16.56
2018-07-21T04:36:45.318Z,16.63
2018-07-21T04:37:45.259Z,16.41
2018-07-21T04:38:45.266Z,16.53
2018-07-21T04:39:45.335Z,16.5
2018-07-21T04:40:45.267Z,16.5
2018-07-21T04:41:45.257Z,16.5
2018-07-21T04:42:45.267Z,16.63
2018-07-21T04:43:45.236Z,16.59
2018-07-21T04:44:45.245Z,16.51
2018-07-21T04:45:45.250Z,16.59
2018-07-21T04:46:45.814Z,16.48
2018-07-21T04:47:45.226Z,16.65
2018-07-21T04:48:45.218Z,16.54
2018-07-21T04:49:45.283Z,16.57
2018-07-21T04:50:45.305Z,16.63
2018-07-21T04:51:45.387Z,16.4
2018-07-21T04:52:45.335Z,16.55
2018-07-21T04:53:45.286Z,16.55
2018-07-21T04:54:45.388Z,16.41
2018-07-21T04:55:45.320Z,16.6
2018-07-21T04:56:45.315Z,16.48
2018-07-21T04:57:45.364Z,16.47
2018-07-21T04:58:45.240Z,16.5
2018-07-21T04:59:45.251Z,16.48
2018-07-21T05:00:46.015Z,16.6
2018-07-21T05:01:45.288Z,16.5
2018-07-21T05:02:45.298Z,16.45
2018-07-21T05:03:45.248Z,16.54
2018-07-21T05:04:45.242Z,16.5
2018-07-21T05:05:45.291Z,16.42
2018-07-21T05:06:45.292Z,16.51
2018-07-21T05:07:45.234Z,16.39
2018-07-21T05:08:45.273Z,16.47
2018-07-21T05:09:45.236Z,16.52
2018-07-21T05:10:45.229Z,16.36
2018-07-21T05:11:45.332Z,16.38
2018-07-21T05:12:45.272Z,16.5
2018-07-21T05:13:45.256Z,16.54
2018-07-21T05:14:45.245Z,16.47
2018-07-21T05:15:45.305Z,16.53
2018-07-21T05:16:45.225Z,16.48
2018-07-21T05:17:45.226Z,16.45
2018-07-21T05:18:45.260Z,16.48
2018-07-21T05:19:45.239Z,16.4
2018-07-21T05:20:45.336Z,16.46
2018-07-21T05:21:45.332Z,16.48
2018-07-21T05:22:45.286Z,16.41
2018-07-21T05:23:45.314Z,16.43
2018-07-21T05:24:45.429Z,16.47
2018-07-21T05:25:45.240Z,16.48
2018-07-21T05:26:45.406Z,16.48
2018-07-21T05:27:45.274Z,16.48
2018-07-21T05:28:45.278Z,16.44
2018-07-21T05:29:45.248Z,16.49
2018-07-21T05:30:45.248Z,16.44
2018-07-21T05:31:45.262Z,16.5
2018-07-21T05:32:45.347Z,16.44
2018-07-21T05:33:45.256Z,16.38
2018-07-21T05:34:45.405Z,16.46
2018-07-21T05:35:45.322Z,16.39
2018-07-21T05:36:45.401Z,16.47
2018-07-21T05:37:45.205Z,16.43
2018-07-21T05:38:45.240Z,16.36
2018-07-21T05:39:45.368Z,16.4
2018-07-21T05:40:45.238Z,16.39
2018-07-21T05:41:45.547Z,16.33
2018-07-21T05:42:45.432Z,16.35
2018-07-21T05:43:45.222Z,16.55
2018-07-21T05:44:45.366Z,16.45
2018-07-21T05:45:45.216Z,16.42
2018-07-21T05:46:45.207Z,16.45
2018-07-21T05:47:45.246Z,16.45
2018-07-21T05:48:45.257Z,16.43
2018-07-21T05:49:45.234Z,16.43
2018-07-21T05:50:45.238Z,16.52
2018-07-21T05:51:45.247Z,16.43
2018-07-21T05:52:45.241Z,16.42
2018-07-21T05:53:45.252Z,16.43
2018-07-21T05:54:45.267Z,16.46
2018-07-21T05:55:45.230Z,16.59
2018-07-21T05:56:45.317Z,16.45
2018-07-21T05:57:45.276Z,16.46
2018-07-21T05:58:45.276Z,16.45
2018-07-21T05:59:45.201Z,16.38
2018-07-21T06:00:45.228Z,16.5
2018-07-21T06:01:45.247Z,16.48
2018-07-21T06:02:45.744Z,16.39
2018-07-21T06:03:45.267Z,16.46
2018-07-21T06:04:45.403Z,16.42
2018-07-21T06:05:45.415Z,16.44
2018-07-21T06:06:45.408Z,16.39
2018-07-21T06:07:45.263Z,16.43
2018-07-21T06:08:45.797Z,16.46
2018-07-21T06:09:45.249Z,16.39
2018-07-21T06:10:45.234Z,16.36
2018-07-21T06:11:45.370Z,16.49
2018-07-21T06:12:45.321Z,16.39
2018-07-21T06:13:45.215Z,16.53
2018-07-21T06:14:45.195Z,16.47
2018-07-21T06:15:45.265Z,16.42
2018-07-21T06:16:45.236Z,16.45
2018-07-21T06:17:45.253Z,16.43
2018-07-21T06:18:45.885Z,16.42
2018-07-21T06:19:45.197Z,16.49
2018-07-21T06:20:45.216Z,16.49
2018-07-21T06:21:45.207Z,16.52
2018-07-21T06:22:45.257Z,16.46
2018-07-21T06:23:45.449Z,16.48
2018-07-21T06:24:45.223Z,16.53
2018-07-21T06:25:45.262Z,16.5
2018-07-21T06:26:45.257Z,16.57
2018-07-21T06:27:45.450Z,16.61
2018-07-21T06:28:45.274Z,16.55
2018-07-21T06:29:45.287Z,16.52
2018-07-21T06:30:45.254Z,16.58
2018-07-21T06:31:45.201Z,16.59
2018-07-21T06:32:45.464Z,16.55
2018-07-21T06:33:45.258Z,16.6
2018-07-21T06:34:45.323Z,16.61
2018-07-21T06:35:45.198Z,16.59
2018-07-21T06:36:45.232Z,16.51
2018-07-21T06:37:45.314Z,16.59
2018-07-21T06:38:45.366Z,16.56
2018-07-21T06:39:45.234Z,16.51
2018-07-21T06:40:45.284Z,16.53
2018-07-21T06:41:45.335Z,16.53
2018-07-21T06:42:45.216Z,16.53
2018-07-21T06:43:45.494Z,16.56
2018-07-21T06:44:45.263Z,16.48
2018-07-21T06:45:45.199Z,16.54
2018-07-21T06:46:45.248Z,16.53
2018-07-21T06:47:45.540Z,16.53
2018-07-21T06:48:45.192Z,16.51
2018-07-21T06:49:45.228Z,16.53
2018-07-21T06:50:45.236Z,16.57
2018-07-21T06:51:45.379Z,16.6
2018-07-21T06:52:45.180Z,16.5
2018-07-21T06:53:45.189Z,16.46
2018-07-21T06:54:45.196Z,16.53
2018-07-21T06:55:45.189Z,16.56
2018-07-21T06:56:45.216Z,16.55
2018-07-21T06:57:45.201Z,16.6
2018-07-21T06:58:45.206Z,16.49
2018-07-21T06:59:45.203Z,16.51
2018-07-21T07:00:45.187Z,16.43
2018-07-21T07:01:45.177Z,16.52
2018-07-21T07:02:45.239Z,16.58
2018-07-21T07:03:45.208Z,16.63
2018-07-21T07:04:45.665Z,16.54
2018-07-21T07:05:45.295Z,16.53
2018-07-21T07:06:45.192Z,16.5
2018-07-21T07:07:45.192Z,16.52
2018-07-21T07:08:45.166Z,16.43
2018-07-21T07:09:45.207Z,16.44
2018-07-21T07:10:45.188Z,16.53
2018-07-21T07:11:45.156Z,16.49
2018-07-21T07:12:45.190Z,16.56
2018-07-21T07:13:45.173Z,16.56
2018-07-21T07:14:45.168Z,16.61
2018-07-21T07:15:45.186Z,16.62
2018-07-21T07:16:45.190Z,16.61
2018-07-21T07:17:45.202Z,16.7
2018-07-21T07:18:45.232Z,16.68
2018-07-21T07:19:45.162Z,16.86
2018-07-21T07:20:45.167Z,16.86
2018-07-21T07:21:45.159Z,16.83
2018-07-21T07:22:45.182Z,16.87
2018-07-21T07:23:45.170Z,16.85
2018-07-21T07:24:45.225Z,16.8
2018-07-21T07:25:45.200Z,16.99
2018-07-21T07:26:45.559Z,16.9
2018-07-21T07:27:45.218Z,17.03
2018-07-21T07:28:45.303Z,17.08
2018-07-21T07:29:45.244Z,17.01
2018-07-21T07:30:45.214Z,17.1
2018-07-21T07:31:45.197Z,17.29
2018-07-21T07:32:45.270Z,17.34
2018-07-21T07:33:45.208Z,17.18
2018-07-21T07:34:45.206Z,17.16
2018-07-21T07:35:45.418Z,17.35
2018-07-21T07:36:45.254Z,17.36
2018-07-21T07:37:45.225Z,17.41
2018-07-21T07:38:45.291Z,17.19
2018-07-21T07:39:45.404Z,17.22
2018-07-21T07:40:45.263Z,17.48
2018-07-21T07:41:45.225Z,17.57
2018-07-21T07:42:45.199Z,17.36
2018-07-21T07:43:45.199Z,17.26
2018-07-21T07:44:45.288Z,17.41
2018-07-21T07:45:45.220Z,17.63
2018-07-21T07:46:45.417Z,17.48
2018-07-21T07:47:45.318Z,17.48
2018-07-21T07:48:45.186Z,17.43
2018-07-21T07:49:45.163Z,17.3
2018-07-21T07:50:45.314Z,17.36
2018-07-21T07:51:45.346Z,17.29
2018-07-21T07:52:45.286Z,17.45
2018-07-21T07:53:45.959Z,17.33
2018-07-21T07:54:45.212Z,17.36
2018-07-21T07:55:45.293Z,17.47
2018-07-21T07:56:45.224Z,17.41
2018-07-21T07:57:45.252Z,17.43
2018-07-21T07:58:45.205Z,17.33
2018-07-21T07:59:45.272Z,17.33
2018-07-21T08:00:45.189Z,17.34
2018-07-21T08:01:45.189Z,17.31
2018-07-21T08:02:45.166Z,17.23
2018-07-21T08:03:45.362Z,17.21
2018-07-21T08:04:45.201Z,17.15
2018-07-21T08:05:45.226Z,17.21
2018-07-21T08:06:45.193Z,17.33
2018-07-21T08:07:45.185Z,17.23
2018-07-21T08:08:45.241Z,17.22
2018-07-21T08:09:45.227Z,17.18
2018-07-21T08:10:45.157Z,17.24
2018-07-21T08:11:45.177Z,17.17
2018-07-21T08:12:45.295Z,17.21
2018-07-21T08:13:45.206Z,17.3
2018-07-21T08:14:45.177Z,17.16
2018-07-21T08:15:45.156Z,17.33
2018-07-21T08:16:45.173Z,17.37
2018-07-21T08:17:45.212Z,17.4
2018-07-21T08:18:45.204Z,17.32
2018-07-21T08:19:45.228Z,17.28
2018-07-21T08:20:45.214Z,17.26
2018-07-21T08:21:45.165Z,17.27
2018-07-21T08:22:45.200Z,17.18
2018-07-21T08:23:45.229Z,17.29
2018-07-21T08:24:45.159Z,17.23
2018-07-21T08:25:45.357Z,17.25
2018-07-21T08:26:45.237Z,17.3
2018-07-21T08:27:45.210Z,17.34
2018-07-21T08:28:45.201Z,17.31
2018-07-21T08:29:45.208Z,17.32
2018-07-21T08:30:45.179Z,17.28
2018-07-21T08:31:45.144Z,17.32
2018-07-21T08:32:45.214Z,17.2
2018-07-21T08:33:45.199Z,17.27
2018-07-21T08:34:45.599Z,17.28
2018-07-21T08:35:45.136Z,17.22
2018-07-21T08:36:45.282Z,17.26
2018-07-21T08:37:45.196Z,17.23
2018-07-21T08:38:45.201Z,17.17
2018-07-21T08:39:45.281Z,17.18
2018-07-21T08:40:45.203Z,17.21
2018-07-21T08:41:45.183Z,17.18
2018-07-21T08:42:45.254Z,17.19
2018-07-21T08:43:45.185Z,17.11
2018-07-21T08:44:45.395Z,17.24
2018-07-21T08:45:45.184Z,17.23
2018-07-21T08:46:45.408Z,17.21
2018-07-21T08:47:45.189Z,17.18
2018-07-21T08:48:45.298Z,17.15
2018-07-21T08:49:45.492Z,17.1
2018-07-21T08:50:45.168Z,17.11
2018-07-21T08:51:45.279Z,17.15
2018-07-21T08:52:45.346Z,17.22
2018-07-21T08:53:45.218Z,17.14
2018-07-21T08:54:45.180Z,17.05
2018-07-21T08:55:45.640Z,17.1
2018-07-21T08:56:45.294Z,17.17
2018-07-21T08:57:45.246Z,17.11
2018-07-21T08:58:45.271Z,17.11
2018-07-21T08:59:45.167Z,17.11
2018-07-21T09:00:45.898Z,17.08
2018-07-21T09:01:45.184Z,17.13
2018-07-21T09:02:45.159Z,17.12
2018-07-21T09:03:45.222Z,17.23
2018-07-21T09:04:45.297Z,17.22
2018-07-21T09:05:45.689Z,17.1
2018-07-21T09:06:45.239Z,17.26
2018-07-21T09:07:45.179Z,17.39
2018-07-21T09:08:45.204Z,17.48
2018-07-21T09:09:45.259Z,17.73
2018-07-21T09:10:45.502Z,17.58
2018-07-21T09:11:45.581Z,17.76
2018-07-21T09:12:45.441Z,17.56
2018-07-21T09:13:45.238Z,17.54
2018-07-21T09:14:45.258Z,17.46
2018-07-21T09:15:45.168Z,17.44
2018-07-21T09:16:45.219Z,17.53
2018-07-21T09:17:45.359Z,17.95
2018-07-21T09:18:49.606Z,17.83
2018-07-21T09:19:45.299Z,17.58
2018-07-21T09:20:45.153Z,17.7
2018-07-21T09:21:45.162Z,17.83
2018-07-21T09:22:45.158Z,17.69
2018-07-21T09:23:45.180Z,17.67
2018-07-21T09:24:45.164Z,17.6
2018-07-21T09:25:45.473Z,17.66
2018-07-21T09:26:45.375Z,17.92
2018-07-21T09:27:45.099Z,17.63
2018-07-21T09:28:45.121Z,17.83
2018-07-21T09:29:45.130Z,17.72
2018-07-21T09:30:45.161Z,18.01
2018-07-21T09:31:45.120Z,17.87
2018-07-21T09:32:45.310Z,17.94
2018-07-21T09:33:45.261Z,17.92
2018-07-21T09:34:45.081Z,17.88
2018-07-21T09:35:45.123Z,17.98
2018-07-21T09:36:45.174Z,17.84
2018-07-21T09:37:45.115Z,17.8
2018-07-21T09:38:45.397Z,18
2018-07-21T09:39:45.134Z,18.08
2018-07-21T09:40:45.124Z,17.97
2018-07-21T09:41:45.595Z,17.82
2018-07-21T09:42:45.150Z,17.81
2018-07-21T09:43:45.972Z,17.89
2018-07-21T09:44:45.107Z,18.01
2018-07-21T09:45:45.120Z,18.01
2018-07-21T09:46:45.152Z,18.18
2018-07-21T09:47:45.110Z,18.06
2018-07-21T09:48:45.090Z,18.12
2018-07-21T09:49:45.114Z,17.87
2018-07-21T09:50:45.119Z,18.02
2018-07-21T09:51:45.092Z,17.92
2018-07-21T09:52:45.122Z,18.09
2018-07-21T09:53:48.268Z,18.12
2018-07-21T09:54:45.132Z,18.13
2018-07-21T09:55:45.711Z,18.14
2018-07-21T09:56:45.149Z,18.14
2018-07-21T09:57:45.160Z,18.07
2018-07-21T09:58:45.180Z,18.19
2018-07-21T09:59:45.126Z,18.1
2018-07-21T10:00:45.106Z,18.18
2018-07-21T10:01:45.136Z,18.09
2018-07-21T10:02:45.116Z,18.11
2018-07-21T10:03:45.139Z,18.37
2018-07-21T10:04:45.154Z,18.29
2018-07-21T10:05:45.117Z,18.37
2018-07-21T10:06:45.111Z,18.39
2018-07-21T10:07:45.150Z,18.33
2018-07-21T10:08:45.166Z,18.32
2018-07-21T10:09:45.168Z,18.4
2018-07-21T10:10:45.109Z,18.29
2018-07-21T10:11:45.220Z,18.28
2018-07-21T10:12:45.576Z,18.4
2018-07-21T10:13:45.199Z,18.4
2018-07-21T10:14:45.195Z,18.39
2018-07-21T10:15:45.134Z,18.39
2018-07-21T10:16:45.228Z,18.5
2018-07-21T10:17:45.223Z,18.45
2018-07-21T10:18:45.225Z,18.47
2018-07-21T10:19:45.181Z,18.61
2018-07-21T10:20:45.185Z,18.63
2018-07-21T10:21:45.474Z,18.34
2018-07-21T10:22:45.175Z,18.29
2018-07-21T10:23:45.189Z,18.08
2018-07-21T10:24:45.315Z,18.21
2018-07-21T10:25:45.182Z,18.23
2018-07-21T10:26:45.193Z,18.28
2018-07-21T10:27:45.167Z,18.25
2018-07-21T10:28:45.305Z,18.43
2018-07-21T10:29:45.510Z,18.25
2018-07-21T10:30:45.434Z,18.24
2018-07-21T10:31:45.200Z,18.12
2018-07-21T10:32:45.452Z,18.18
2018-07-21T10:33:45.321Z,18.01
2018-07-21T10:34:45.237Z,18.12
2018-07-21T10:35:45.136Z,18.01
2018-07-21T10:36:45.261Z,18.19
2018-07-21T10:37:45.134Z,18.43
2018-07-21T10:38:45.161Z,18.38
2018-07-21T10:39:45.165Z,18.33
2018-07-21T10:40:35.234Z,18.3
2018-07-21T10:41:35.266Z,18.42
2018-07-21T10:42:35.394Z,18.28
2018-07-21T10:43:35.339Z,18.23
2018-07-21T10:44:35.678Z,18.29
2018-07-21T10:45:35.220Z,18.4
2018-07-21T10:46:35.212Z,18.3
2018-07-21T10:47:36.118Z,18.21
2018-07-21T10:48:35.525Z,18.21
2018-07-21T10:49:35.434Z,18.24
2018-07-21T10:50:35.197Z,18.3
2018-07-21T10:51:35.838Z,18.26
2018-07-21T10:52:35.350Z,18.23
2018-07-21T10:53:35.862Z,18.08
2018-07-21T10:54:35.220Z,18.37
2018-07-21T10:55:35.184Z,18.37
2018-07-21T10:56:35.213Z,18.42
2018-07-21T10:57:35.314Z,18.52
2018-07-21T10:58:35.511Z,18.38
2018-07-21T10:59:35.372Z,18.28
2018-07-21T11:00:35.184Z,18.38
2018-07-21T11:01:35.356Z,18.22
2018-07-21T11:02:35.265Z,18.09
2018-07-21T11:03:35.290Z,18.24
2018-07-21T11:04:35.240Z,18.57
2018-07-21T11:05:35.625Z,18.48
2018-07-21T11:06:35.357Z,18.33
2018-07-21T11:07:36.087Z,18.5
2018-07-21T11:08:35.194Z,18.48
2018-07-21T11:09:35.201Z,18.52
2018-07-21T11:10:35.196Z,18.25
2018-07-21T11:11:36.021Z,18.18
2018-07-21T11:12:35.237Z,18.14
2018-07-21T11:13:35.222Z,18.25
2018-07-21T11:14:35.196Z,18.58
2018-07-21T11:15:35.687Z,18.52
2018-07-21T11:16:35.241Z,18.31
2018-07-21T11:17:35.187Z,18.43
2018-07-21T11:18:35.190Z,18.32
2018-07-21T11:19:35.258Z,18.35
2018-07-21T11:20:35.270Z,18.36
2018-07-21T11:21:35.548Z,18.28
2018-07-21T11:22:35.193Z,18.31
2018-07-21T11:23:35.261Z,18.26
2018-07-21T11:24:35.237Z,18.47
2018-07-21T11:25:35.377Z,18.31
2018-07-21T11:26:35.245Z,18.23
2018-07-21T11:27:35.217Z,18.16
2018-07-21T11:28:35.223Z,18.18
2018-07-21T11:29:35.215Z,18.22
2018-07-21T11:30:35.232Z,18.18
2018-07-21T11:31:35.361Z,18.18
2018-07-21T11:32:35.335Z,18.26
2018-07-21T11:33:35.912Z,18.17
2018-07-21T11:34:35.335Z,18.11
2018-07-21T11:35:36.185Z,18.12
2018-07-21T11:36:35.653Z,18.14
2018-07-21T11:37:35.213Z,18.12
2018-07-21T11:38:35.260Z,18.22
2018-07-21T11:39:35.187Z,18.53
2018-07-21T11:40:35.802Z,18.62
2018-07-21T11:41:35.271Z,18.36
2018-07-21T11:42:35.732Z,18.16
2018-07-21T11:43:35.260Z,18.2
2018-07-21T11:44:35.585Z,18.27
2018-07-21T11:45:35.239Z,18.36
2018-07-21T11:46:35.198Z,18.21
2018-07-21T11:47:35.197Z,18.26
2018-07-21T11:48:35.166Z,18.24
2018-07-21T11:49:35.222Z,18.25
2018-07-21T11:50:35.255Z,18.29
2018-07-21T11:51:35.188Z,18.64
2018-07-21T11:52:35.234Z,18.74
2018-07-21T11:53:35.337Z,18.48
2018-07-21T11:54:35.425Z,18.76
2018-07-21T11:55:35.243Z,18.92
2018-07-21T11:56:35.208Z,18.42
2018-07-21T11:57:35.217Z,18.36
2018-07-21T11:58:35.189Z,18.46
2018-07-21T11:59:35.266Z,18.49
2018-07-21T12:00:35.342Z,18.41
2018-07-21T12:01:35.244Z,18.75
2018-07-21T12:02:35.205Z,18.83
2018-07-21T12:03:35.254Z,18.83
2018-07-21T12:04:35.280Z,18.73
2018-07-21T12:05:35.392Z,18.77
2018-07-21T12:06:35.298Z,18.93
2018-07-21T12:07:35.205Z,18.83
2018-07-21T12:08:35.202Z,18.9
2018-07-21T12:09:35.404Z,18.96
2018-07-21T12:10:35.210Z,18.89
2018-07-21T12:11:35.161Z,18.92
2018-07-21T12:12:35.172Z,18.87
2018-07-21T12:13:36.549Z,18.79
2018-07-21T12:14:35.288Z,18.72
2018-07-21T12:15:35.183Z,18.73
2018-07-21T12:16:35.330Z,18.75
2018-07-21T12:17:35.165Z,18.79
2018-07-21T12:18:35.163Z,18.75
2018-07-21T12:19:35.272Z,18.81
2018-07-21T12:20:35.176Z,18.96
2018-07-21T12:21:35.174Z,18.72
2018-07-21T12:22:35.614Z,18.72
2018-07-21T12:23:35.175Z,18.88
2018-07-21T12:24:35.946Z,19.28
2018-07-21T12:25:35.175Z,18.8
2018-07-21T12:26:35.413Z,19.01
2018-07-21T12:27:35.490Z,19.18
2018-07-21T12:28:35.178Z,18.87
2018-07-21T12:29:35.201Z,19.05
2018-07-21T12:30:35.155Z,19.02
2018-07-21T12:31:35.208Z,18.93
2018-07-21T12:32:35.177Z,19.28
2018-07-21T12:33:35.474Z,19.18
2018-07-21T12:34:35.195Z,19.16
2018-07-21T12:35:35.200Z,19.19
2018-07-21T12:36:35.207Z,19.21
2018-07-21T12:37:35.187Z,19.1
2018-07-21T12:38:35.193Z,19.1
2018-07-21T12:39:35.164Z,19.13
2018-07-21T12:40:35.160Z,18.98
2018-07-21T12:41:35.179Z,19.02
2018-07-21T12:42:35.650Z,19
2018-07-21T12:43:35.209Z,19
2018-07-21T12:44:35.180Z,18.92
2018-07-21T12:45:35.324Z,18.75
2018-07-21T12:46:35.523Z,18.86
2018-07-21T12:47:35.347Z,19.21
2018-07-21T12:48:35.264Z,18.74
2018-07-21T12:49:35.280Z,18.79
2018-07-21T12:50:35.155Z,19.03
2018-07-21T12:51:35.157Z,19.02
2018-07-21T12:52:35.509Z,18.95
2018-07-21T12:53:35.244Z,18.86
2018-07-21T12:54:35.143Z,18.79
2018-07-21T12:55:35.411Z,18.75